sensor_id;sensor_type;location;lat;lon;timestamp;P1;durP1;ratioP1;P2;durP2;ratioP2
46363;SDS011;32071;49.036;9.344;2024-02-04T00:02:07;1.13;;;0.93;;
46363;SDS011;32071;49.036;9.344;2024-02-04T00:04:34;1.53;;;1.33;;
46363;SDS011;32071;49.036;9.344;2024-02-04T00:07:00;1.90;;;1.10;;
46363;SDS011;32071;49.036;9.344;2024-02-04T00:09:26;1.50;;;1.17;;
46363;SDS011;32071;49.036;9.344;2024-02-04T00:11:53;0.70;;;0.70;;
46363;SDS011;32071;49.036;9.344;2024-02-04T00:14:19;1.40;;;0.80;;
46363;SDS011;32071;49.036;9.344;2024-02-04T00:16:44;1.17;;;1.07;;
46363;SDS011;32071;49.036;9.344;2024-02-04T00:19:10;1.13;;;1.03;;
46363;SDS011;32071;49.036;9.344;2024-02-04T00:21:35;1.30;;;1.20;;
46363;SDS011;32071;49.036;9.344;2024-02-04T00:24:01;1.10;;;0.87;;
46363;SDS011;32071;49.036;9.344;2024-02-04T00:26:27;1.13;;;1.07;;
46363;SDS011;32071;49.036;9.344;2024-02-04T00:28:52;0.97;;;0.87;;
46363;SDS011;32071;49.036;9.344;2024-02-04T00:31:18;1.37;;;1.00;;
46363;SDS011;32071;49.036;9.344;2024-02-04T00:33:44;2.10;;;1.20;;
46363;SDS011;32071;49.036;9.344;2024-02-04T00:36:09;0.90;;;0.90;;
46363;SDS011;32071;49.036;9.344;2024-02-04T00:38:35;0.50;;;0.50;;
46363;SDS011;32071;49.036;9.344;2024-02-04T00:41:00;1.07;;;0.97;;
46363;SDS011;32071;49.036;9.344;2024-02-04T00:43:26;0.83;;;0.60;;
46363;SDS011;32071;49.036;9.344;2024-02-04T00:45:51;0.90;;;0.90;;
46363;SDS011;32071;49.036;9.344;2024-02-04T00:48:19;1.20;;;1.10;;
46363;SDS011;32071;49.036;9.344;2024-02-04T00:50:44;1.27;;;0.70;;
46363;SDS011;32071;49.036;9.344;2024-02-04T00:53:10;0.90;;;0.90;;
46363;SDS011;32071;49.036;9.344;2024-02-04T00:55:35;2.23;;;0.80;;
46363;SDS011;32071;49.036;9.344;2024-02-04T00:58:01;1.07;;;0.80;;
46363;SDS011;32071;49.036;9.344;2024-02-04T01:00:27;0.77;;;0.77;;
46363;SDS011;32071;49.036;9.344;2024-02-04T01:02:52;1.73;;;0.97;;
46363;SDS011;32071;49.036;9.344;2024-02-04T01:05:18;1.80;;;1.30;;
46363;SDS011;32071;49.036;9.344;2024-02-04T01:07:44;1.03;;;0.93;;
46363;SDS011;32071;49.036;9.344;2024-02-04T01:10:10;1.57;;;1.47;;
46363;SDS011;32071;49.036;9.344;2024-02-04T01:12:36;0.60;;;0.60;;
46363;SDS011;32071;49.036;9.344;2024-02-04T01:15:01;0.70;;;0.70;;
46363;SDS011;32071;49.036;9.344;2024-02-04T01:17:30;0.57;;;0.50;;
46363;SDS011;32071;49.036;9.344;2024-02-04T01:19:56;0.60;;;0.60;;
46363;SDS011;32071;49.036;9.344;2024-02-04T01:22:21;0.63;;;0.63;;
46363;SDS011;32071;49.036;9.344;2024-02-04T01:24:51;0.87;;;0.70;;
46363;SDS011;32071;49.036;9.344;2024-02-04T01:27:16;1.03;;;0.93;;
46363;SDS011;32071;49.036;9.344;2024-02-04T01:29:42;1.53;;;0.90;;
46363;SDS011;32071;49.036;9.344;2024-02-04T01:32:08;1.10;;;1.00;;
46363;SDS011;32071;49.036;9.344;2024-02-04T01:34:33;1.50;;;1.40;;
46363;SDS011;32071;49.036;9.344;2024-02-04T01:36:59;1.50;;;1.40;;
46363;SDS011;32071;49.036;9.344;2024-02-04T01:39:24;2.00;;;1.60;;
46363;SDS011;32071;49.036;9.344;2024-02-04T01:41:50;1.80;;;1.70;;
46363;SDS011;32071;49.036;9.344;2024-02-04T01:44:16;1.53;;;1.40;;
46363;SDS011;32071;49.036;9.344;2024-02-04T01:46:43;1.23;;;1.07;;
46363;SDS011;32071;49.036;9.344;2024-02-04T01:49:09;1.47;;;1.37;;
46363;SDS011;32071;49.036;9.344;2024-02-04T01:51:35;4.67;;;4.17;;
46363;SDS011;32071;49.036;9.344;2024-02-04T01:54:01;4.10;;;3.10;;
46363;SDS011;32071;49.036;9.344;2024-02-04T01:56:28;3.53;;;3.23;;
46363;SDS011;32071;49.036;9.344;2024-02-04T01:58:54;3.73;;;3.40;;
46363;SDS011;32071;49.036;9.344;2024-02-04T02:01:20;1.70;;;1.60;;
46363;SDS011;32071;49.036;9.344;2024-02-04T02:03:47;1.17;;;1.07;;
46363;SDS011;32071;49.036;9.344;2024-02-04T02:06:15;2.90;;;1.10;;
46363;SDS011;32071;49.036;9.344;2024-02-04T02:08:41;0.80;;;0.70;;
46363;SDS011;32071;49.036;9.344;2024-02-04T02:11:11;0.57;;;0.57;;
46363;SDS011;32071;49.036;9.344;2024-02-04T02:13:43;0.83;;;0.83;;
46363;SDS011;32071;49.036;9.344;2024-02-04T02:16:15;0.53;;;0.50;;
46363;SDS011;32071;49.036;9.344;2024-02-04T02:18:47;0.90;;;0.70;;
46363;SDS011;32071;49.036;9.344;2024-02-04T02:24:03;2.50;;;1.50;;
46363;SDS011;32071;49.036;9.344;2024-02-04T02:26:35;0.73;;;0.73;;
46363;SDS011;32071;49.036;9.344;2024-02-04T02:29:05;0.87;;;0.70;;
46363;SDS011;32071;49.036;9.344;2024-02-04T02:31:33;0.90;;;0.67;;
46363;SDS011;32071;49.036;9.344;2024-02-04T02:33:59;0.77;;;0.77;;
46363;SDS011;32071;49.036;9.344;2024-02-04T02:36:25;1.30;;;0.90;;
46363;SDS011;32071;49.036;9.344;2024-02-04T02:41:30;0.90;;;0.90;;
46363;SDS011;32071;49.036;9.344;2024-02-04T02:43:57;0.90;;;0.70;;
46363;SDS011;32071;49.036;9.344;2024-02-04T02:46:24;0.63;;;0.63;;
46363;SDS011;32071;49.036;9.344;2024-02-04T02:48:50;1.40;;;0.90;;
46363;SDS011;32071;49.036;9.344;2024-02-04T02:51:16;0.90;;;0.90;;
46363;SDS011;32071;49.036;9.344;2024-02-04T02:53:41;1.40;;;0.80;;
46363;SDS011;32071;49.036;9.344;2024-02-04T02:56:07;0.83;;;0.67;;
46363;SDS011;32071;49.036;9.344;2024-02-04T02:58:32;0.50;;;0.50;;
46363;SDS011;32071;49.036;9.344;2024-02-04T03:00:58;0.60;;;0.60;;
46363;SDS011;32071;49.036;9.344;2024-02-04T03:03:23;0.50;;;0.50;;
46363;SDS011;32071;49.036;9.344;2024-02-04T03:05:49;1.37;;;0.67;;
46363;SDS011;32071;49.036;9.344;2024-02-04T03:08:15;1.73;;;0.60;;
46363;SDS011;32071;49.036;9.344;2024-02-04T03:10:40;0.67;;;0.67;;
46363;SDS011;32071;49.036;9.344;2024-02-04T03:13:06;0.70;;;0.70;;
46363;SDS011;32071;49.036;9.344;2024-02-04T03:15:31;0.63;;;0.63;;
46363;SDS011;32071;49.036;9.344;2024-02-04T03:17:57;0.60;;;0.57;;
46363;SDS011;32071;49.036;9.344;2024-02-04T03:20:22;0.50;;;0.50;;
46363;SDS011;32071;49.036;9.344;2024-02-04T03:22:48;0.70;;;0.53;;
46363;SDS011;32071;49.036;9.344;2024-02-04T03:25:13;0.60;;;0.60;;
46363;SDS011;32071;49.036;9.344;2024-02-04T03:27:39;0.40;;;0.40;;
46363;SDS011;32071;49.036;9.344;2024-02-04T03:30:05;0.60;;;0.60;;
46363;SDS011;32071;49.036;9.344;2024-02-04T03:32:31;0.83;;;0.47;;
46363;SDS011;32071;49.036;9.344;2024-02-04T03:34:59;0.37;;;0.30;;
46363;SDS011;32071;49.036;9.344;2024-02-04T03:37:26;0.70;;;0.50;;
46363;SDS011;32071;49.036;9.344;2024-02-04T03:39:51;0.40;;;0.40;;
46363;SDS011;32071;49.036;9.344;2024-02-04T03:42:17;0.83;;;0.43;;
46363;SDS011;32071;49.036;9.344;2024-02-04T03:44:43;0.87;;;0.60;;
46363;SDS011;32071;49.036;9.344;2024-02-04T03:47:10;1.03;;;0.40;;
46363;SDS011;32071;49.036;9.344;2024-02-04T03:49:35;0.50;;;0.37;;
46363;SDS011;32071;49.036;9.344;2024-02-04T03:52:01;0.60;;;0.40;;
46363;SDS011;32071;49.036;9.344;2024-02-04T03:54:27;2.83;;;0.40;;
46363;SDS011;32071;49.036;9.344;2024-02-04T03:56:52;0.60;;;0.40;;
46363;SDS011;32071;49.036;9.344;2024-02-04T03:59:18;0.50;;;0.40;;
46363;SDS011;32071;49.036;9.344;2024-02-04T04:01:50;0.50;;;0.40;;
46363;SDS011;32071;49.036;9.344;2024-02-04T04:04:18;0.50;;;0.40;;
46363;SDS011;32071;49.036;9.344;2024-02-04T04:06:44;0.40;;;0.40;;
46363;SDS011;32071;49.036;9.344;2024-02-04T04:09:10;0.97;;;0.50;;
46363;SDS011;32071;49.036;9.344;2024-02-04T04:11:36;0.57;;;0.53;;
46363;SDS011;32071;49.036;9.344;2024-02-04T04:14:01;0.60;;;0.40;;
46363;SDS011;32071;49.036;9.344;2024-02-04T04:16:27;0.60;;;0.60;;
46363;SDS011;32071;49.036;9.344;2024-02-04T04:18:53;0.70;;;0.70;;
46363;SDS011;32071;49.036;9.344;2024-02-04T04:21:18;0.70;;;0.50;;
46363;SDS011;32071;49.036;9.344;2024-02-04T04:23:44;0.53;;;0.50;;
46363;SDS011;32071;49.036;9.344;2024-02-04T04:26:09;0.50;;;0.50;;
46363;SDS011;32071;49.036;9.344;2024-02-04T04:28:35;0.60;;;0.40;;
46363;SDS011;32071;49.036;9.344;2024-02-04T04:31:01;0.50;;;0.50;;
46363;SDS011;32071;49.036;9.344;2024-02-04T04:33:26;0.70;;;0.70;;
46363;SDS011;32071;49.036;9.344;2024-02-04T04:35:52;0.90;;;0.53;;
46363;SDS011;32071;49.036;9.344;2024-02-04T04:38:17;0.60;;;0.60;;
46363;SDS011;32071;49.036;9.344;2024-02-04T04:40:43;1.20;;;0.50;;
46363;SDS011;32071;49.036;9.344;2024-02-04T04:43:09;0.70;;;0.57;;
46363;SDS011;32071;49.036;9.344;2024-02-04T04:45:34;0.80;;;0.53;;
46363;SDS011;32071;49.036;9.344;2024-02-04T04:48:00;1.07;;;0.93;;
46363;SDS011;32071;49.036;9.344;2024-02-04T04:50:25;0.60;;;0.40;;
46363;SDS011;32071;49.036;9.344;2024-02-04T04:52:51;0.40;;;0.40;;
46363;SDS011;32071;49.036;9.344;2024-02-04T04:55:18;0.73;;;0.43;;
46363;SDS011;32071;49.036;9.344;2024-02-04T04:57:44;0.80;;;0.63;;
46363;SDS011;32071;49.036;9.344;2024-02-04T05:00:09;0.50;;;0.40;;
46363;SDS011;32071;49.036;9.344;2024-02-04T05:02:37;0.80;;;0.60;;
46363;SDS011;32071;49.036;9.344;2024-02-04T05:05:02;0.50;;;0.50;;
46363;SDS011;32071;49.036;9.344;2024-02-04T05:07:28;0.80;;;0.70;;
46363;SDS011;32071;49.036;9.344;2024-02-04T05:09:54;1.13;;;0.87;;
46363;SDS011;32071;49.036;9.344;2024-02-04T05:12:19;1.00;;;0.80;;
46363;SDS011;32071;49.036;9.344;2024-02-04T05:14:45;0.70;;;0.60;;
46363;SDS011;32071;49.036;9.344;2024-02-04T05:17:10;0.50;;;0.40;;
46363;SDS011;32071;49.036;9.344;2024-02-04T05:19:36;0.60;;;0.40;;
46363;SDS011;32071;49.036;9.344;2024-02-04T05:22:02;0.50;;;0.50;;
46363;SDS011;32071;49.036;9.344;2024-02-04T05:24:28;0.60;;;0.53;;
46363;SDS011;32071;49.036;9.344;2024-02-04T05:26:53;0.60;;;0.50;;
46363;SDS011;32071;49.036;9.344;2024-02-04T05:29:19;0.50;;;0.43;;
46363;SDS011;32071;49.036;9.344;2024-02-04T05:31:44;0.50;;;0.50;;
46363;SDS011;32071;49.036;9.344;2024-02-04T05:34:10;1.40;;;0.60;;
46363;SDS011;32071;49.036;9.344;2024-02-04T05:36:36;0.93;;;0.80;;
46363;SDS011;32071;49.036;9.344;2024-02-04T05:39:35;0.60;;;0.50;;
46363;SDS011;32071;49.036;9.344;2024-02-04T05:41:54;0.57;;;0.57;;
46363;SDS011;32071;49.036;9.344;2024-02-04T05:44:20;1.13;;;0.60;;
46363;SDS011;32071;49.036;9.344;2024-02-04T05:46:45;0.40;;;0.30;;
46363;SDS011;32071;49.036;9.344;2024-02-04T05:49:11;1.60;;;0.40;;
46363;SDS011;32071;49.036;9.344;2024-02-04T05:51:40;0.40;;;0.40;;
46363;SDS011;32071;49.036;9.344;2024-02-04T05:54:06;0.57;;;0.57;;
46363;SDS011;32071;49.036;9.344;2024-02-04T05:56:32;1.23;;;0.40;;
46363;SDS011;32071;49.036;9.344;2024-02-04T05:58:58;0.40;;;0.33;;
46363;SDS011;32071;49.036;9.344;2024-02-04T06:01:24;0.53;;;0.40;;
46363;SDS011;32071;49.036;9.344;2024-02-04T06:03:49;0.93;;;0.50;;
46363;SDS011;32071;49.036;9.344;2024-02-04T06:06:15;0.43;;;0.37;;
46363;SDS011;32071;49.036;9.344;2024-02-04T06:08:43;0.50;;;0.40;;
46363;SDS011;32071;49.036;9.344;2024-02-04T06:11:14;0.67;;;0.60;;
46363;SDS011;32071;49.036;9.344;2024-02-04T06:13:41;1.20;;;0.50;;
46363;SDS011;32071;49.036;9.344;2024-02-04T06:16:08;1.63;;;0.40;;
46363;SDS011;32071;49.036;9.344;2024-02-04T06:18:35;0.70;;;0.67;;
46363;SDS011;32071;49.036;9.344;2024-02-04T06:21:04;0.47;;;0.40;;
46363;SDS011;32071;49.036;9.344;2024-02-04T06:23:30;0.43;;;0.43;;
46363;SDS011;32071;49.036;9.344;2024-02-04T06:25:55;0.50;;;0.40;;
46363;SDS011;32071;49.036;9.344;2024-02-04T06:28:21;0.50;;;0.33;;
46363;SDS011;32071;49.036;9.344;2024-02-04T06:30:48;0.50;;;0.40;;
46363;SDS011;32071;49.036;9.344;2024-02-04T06:33:14;0.50;;;0.40;;
46363;SDS011;32071;49.036;9.344;2024-02-04T06:35:40;1.00;;;0.40;;
46363;SDS011;32071;49.036;9.344;2024-02-04T06:38:06;0.40;;;0.30;;
46363;SDS011;32071;49.036;9.344;2024-02-04T06:40:31;0.40;;;0.30;;
46363;SDS011;32071;49.036;9.344;2024-02-04T06:42:57;0.30;;;0.30;;
46363;SDS011;32071;49.036;9.344;2024-02-04T06:45:22;0.70;;;0.47;;
46363;SDS011;32071;49.036;9.344;2024-02-04T06:47:48;0.60;;;0.40;;
46363;SDS011;32071;49.036;9.344;2024-02-04T06:50:13;1.30;;;0.50;;
46363;SDS011;32071;49.036;9.344;2024-02-04T06:52:39;0.40;;;0.30;;
46363;SDS011;32071;49.036;9.344;2024-02-04T06:55:07;0.40;;;0.30;;
46363;SDS011;32071;49.036;9.344;2024-02-04T06:57:32;0.90;;;0.50;;
46363;SDS011;32071;49.036;9.344;2024-02-04T06:59:58;0.50;;;0.40;;
46363;SDS011;32071;49.036;9.344;2024-02-04T07:02:23;0.50;;;0.40;;
46363;SDS011;32071;49.036;9.344;2024-02-04T07:04:49;0.43;;;0.43;;
46363;SDS011;32071;49.036;9.344;2024-02-04T07:07:15;0.77;;;0.70;;
46363;SDS011;32071;49.036;9.344;2024-02-04T07:09:40;0.30;;;0.30;;
46363;SDS011;32071;49.036;9.344;2024-02-04T07:12:06;0.50;;;0.30;;
46363;SDS011;32071;49.036;9.344;2024-02-04T07:14:31;0.50;;;0.37;;
46363;SDS011;32071;49.036;9.344;2024-02-04T07:16:57;0.50;;;0.50;;
46363;SDS011;32071;49.036;9.344;2024-02-04T07:19:22;1.47;;;0.80;;
46363;SDS011;32071;49.036;9.344;2024-02-04T07:21:48;0.90;;;0.63;;
46363;SDS011;32071;49.036;9.344;2024-02-04T07:24:13;0.50;;;0.40;;
46363;SDS011;32071;49.036;9.344;2024-02-04T07:26:39;3.60;;;2.27;;
46363;SDS011;32071;49.036;9.344;2024-02-04T07:29:05;0.40;;;0.40;;
46363;SDS011;32071;49.036;9.344;2024-02-04T07:31:30;0.50;;;0.50;;
46363;SDS011;32071;49.036;9.344;2024-02-04T07:33:57;0.57;;;0.57;;
46363;SDS011;32071;49.036;9.344;2024-02-04T07:36:24;2.43;;;0.90;;
46363;SDS011;32071;49.036;9.344;2024-02-04T07:38:49;0.60;;;0.30;;
46363;SDS011;32071;49.036;9.344;2024-02-04T07:41:15;0.80;;;0.60;;
46363;SDS011;32071;49.036;9.344;2024-02-04T07:43:41;0.60;;;0.60;;
46363;SDS011;32071;49.036;9.344;2024-02-04T07:46:08;1.63;;;1.23;;
46363;SDS011;32071;49.036;9.344;2024-02-04T07:48:35;0.73;;;0.50;;
46363;SDS011;32071;49.036;9.344;2024-02-04T07:51:01;1.00;;;0.50;;
46363;SDS011;32071;49.036;9.344;2024-02-04T07:53:26;0.70;;;0.70;;
46363;SDS011;32071;49.036;9.344;2024-02-04T07:55:52;0.50;;;0.50;;
46363;SDS011;32071;49.036;9.344;2024-02-04T07:58:19;0.60;;;0.60;;
46363;SDS011;32071;49.036;9.344;2024-02-04T08:00:44;0.70;;;0.70;;
46363;SDS011;32071;49.036;9.344;2024-02-04T08:03:10;0.60;;;0.57;;
46363;SDS011;32071;49.036;9.344;2024-02-04T08:05:36;0.63;;;0.47;;
46363;SDS011;32071;49.036;9.344;2024-02-04T08:08:01;0.50;;;0.40;;
46363;SDS011;32071;49.036;9.344;2024-02-04T08:10:28;0.40;;;0.40;;
46363;SDS011;32071;49.036;9.344;2024-02-04T08:12:55;0.83;;;0.40;;
46363;SDS011;32071;49.036;9.344;2024-02-04T08:15:22;0.57;;;0.40;;
46363;SDS011;32071;49.036;9.344;2024-02-04T08:17:48;0.50;;;0.43;;
46363;SDS011;32071;49.036;9.344;2024-02-04T08:20:13;0.40;;;0.40;;
46363;SDS011;32071;49.036;9.344;2024-02-04T08:22:39;0.60;;;0.50;;
46363;SDS011;32071;49.036;9.344;2024-02-04T08:25:04;0.40;;;0.37;;
46363;SDS011;32071;49.036;9.344;2024-02-04T08:27:31;0.40;;;0.40;;
46363;SDS011;32071;49.036;9.344;2024-02-04T08:29:57;0.70;;;0.60;;
46363;SDS011;32071;49.036;9.344;2024-02-04T08:32:23;0.80;;;0.77;;
46363;SDS011;32071;49.036;9.344;2024-02-04T08:34:50;0.87;;;0.70;;
46363;SDS011;32071;49.036;9.344;2024-02-04T08:37:16;1.80;;;1.20;;
46363;SDS011;32071;49.036;9.344;2024-02-04T08:39:41;1.20;;;1.00;;
46363;SDS011;32071;49.036;9.344;2024-02-04T08:42:07;0.50;;;0.40;;
46363;SDS011;32071;49.036;9.344;2024-02-04T08:44:32;1.47;;;0.40;;
46363;SDS011;32071;49.036;9.344;2024-02-04T08:46:58;0.50;;;0.50;;
46363;SDS011;32071;49.036;9.344;2024-02-04T08:49:23;0.60;;;0.60;;
46363;SDS011;32071;49.036;9.344;2024-02-04T08:51:49;0.60;;;0.47;;
46363;SDS011;32071;49.036;9.344;2024-02-04T08:54:15;0.87;;;0.40;;
46363;SDS011;32071;49.036;9.344;2024-02-04T08:56:43;0.63;;;0.50;;
46363;SDS011;32071;49.036;9.344;2024-02-04T08:59:09;0.67;;;0.50;;
46363;SDS011;32071;49.036;9.344;2024-02-04T09:01:34;0.60;;;0.50;;
46363;SDS011;32071;49.036;9.344;2024-02-04T09:04:01;0.60;;;0.40;;
46363;SDS011;32071;49.036;9.344;2024-02-04T09:06:27;0.50;;;0.50;;
46363;SDS011;32071;49.036;9.344;2024-02-04T09:08:54;0.70;;;0.50;;
46363;SDS011;32071;49.036;9.344;2024-02-04T09:11:19;7.10;;;0.57;;
46363;SDS011;32071;49.036;9.344;2024-02-04T09:13:45;0.40;;;0.40;;
46363;SDS011;32071;49.036;9.344;2024-02-04T09:16:11;0.60;;;0.60;;
46363;SDS011;32071;49.036;9.344;2024-02-04T09:18:37;0.50;;;0.47;;
46363;SDS011;32071;49.036;9.344;2024-02-04T09:21:02;1.30;;;0.60;;
46363;SDS011;32071;49.036;9.344;2024-02-04T09:23:28;1.17;;;0.53;;
46363;SDS011;32071;49.036;9.344;2024-02-04T09:25:53;0.50;;;0.40;;
46363;SDS011;32071;49.036;9.344;2024-02-04T09:28:19;0.50;;;0.50;;
46363;SDS011;32071;49.036;9.344;2024-02-04T09:30:45;0.40;;;0.30;;
46363;SDS011;32071;49.036;9.344;2024-02-04T09:33:11;0.50;;;0.30;;
46363;SDS011;32071;49.036;9.344;2024-02-04T09:35:39;1.27;;;1.00;;
46363;SDS011;32071;49.036;9.344;2024-02-04T09:38:06;0.73;;;0.43;;
46363;SDS011;32071;49.036;9.344;2024-02-04T09:40:33;0.40;;;0.40;;
46363;SDS011;32071;49.036;9.344;2024-02-04T09:43:00;0.50;;;0.50;;
46363;SDS011;32071;49.036;9.344;2024-02-04T09:45:26;0.83;;;0.53;;
46363;SDS011;32071;49.036;9.344;2024-02-04T09:47:51;0.40;;;0.30;;
46363;SDS011;32071;49.036;9.344;2024-02-04T09:50:20;0.60;;;0.40;;
46363;SDS011;32071;49.036;9.344;2024-02-04T09:52:48;0.50;;;0.40;;
46363;SDS011;32071;49.036;9.344;2024-02-04T09:55:17;0.93;;;0.50;;
46363;SDS011;32071;49.036;9.344;2024-02-04T09:57:46;0.50;;;0.47;;
46363;SDS011;32071;49.036;9.344;2024-02-04T10:00:12;0.60;;;0.50;;
46363;SDS011;32071;49.036;9.344;2024-02-04T10:02:38;0.60;;;0.40;;
46363;SDS011;32071;49.036;9.344;2024-02-04T10:05:06;1.00;;;0.83;;
46363;SDS011;32071;49.036;9.344;2024-02-04T10:07:35;0.50;;;0.40;;
46363;SDS011;32071;49.036;9.344;2024-02-04T10:10:01;1.10;;;0.60;;
46363;SDS011;32071;49.036;9.344;2024-02-04T10:12:27;0.50;;;0.50;;
46363;SDS011;32071;49.036;9.344;2024-02-04T10:14:53;0.73;;;0.67;;
46363;SDS011;32071;49.036;9.344;2024-02-04T10:17:18;1.77;;;0.40;;
46363;SDS011;32071;49.036;9.344;2024-02-04T10:19:48;0.60;;;0.50;;
46363;SDS011;32071;49.036;9.344;2024-02-04T10:22:14;1.73;;;0.53;;
46363;SDS011;32071;49.036;9.344;2024-02-04T10:24:41;0.50;;;0.50;;
46363;SDS011;32071;49.036;9.344;2024-02-04T10:27:07;0.40;;;0.30;;
46363;SDS011;32071;49.036;9.344;2024-02-04T10:29:35;0.40;;;0.40;;
46363;SDS011;32071;49.036;9.344;2024-02-04T10:32:01;0.50;;;0.40;;
46363;SDS011;32071;49.036;9.344;2024-02-04T10:34:27;0.40;;;0.30;;
46363;SDS011;32071;49.036;9.344;2024-02-04T10:36:55;0.40;;;0.30;;
46363;SDS011;32071;49.036;9.344;2024-02-04T10:39:22;0.40;;;0.40;;
46363;SDS011;32071;49.036;9.344;2024-02-04T10:41:51;0.40;;;0.40;;
46363;SDS011;32071;49.036;9.344;2024-02-04T10:44:18;0.40;;;0.40;;
46363;SDS011;32071;49.036;9.344;2024-02-04T10:46:47;1.27;;;0.60;;
46363;SDS011;32071;49.036;9.344;2024-02-04T10:49:14;0.83;;;0.70;;
46363;SDS011;32071;49.036;9.344;2024-02-04T10:51:41;0.80;;;0.50;;
46363;SDS011;32071;49.036;9.344;2024-02-04T10:54:07;0.93;;;0.40;;
46363;SDS011;32071;49.036;9.344;2024-02-04T10:56:37;0.57;;;0.57;;
46363;SDS011;32071;49.036;9.344;2024-02-04T10:59:09;1.00;;;0.90;;
46363;SDS011;32071;49.036;9.344;2024-02-04T11:01:38;0.57;;;0.57;;
46363;SDS011;32071;49.036;9.344;2024-02-04T11:04:05;0.40;;;0.40;;
46363;SDS011;32071;49.036;9.344;2024-02-04T11:06:33;0.40;;;0.40;;
46363;SDS011;32071;49.036;9.344;2024-02-04T11:09:00;0.77;;;0.50;;
46363;SDS011;32071;49.036;9.344;2024-02-04T11:11:26;2.60;;;0.70;;
46363;SDS011;32071;49.036;9.344;2024-02-04T11:13:58;0.50;;;0.50;;
46363;SDS011;32071;49.036;9.344;2024-02-04T11:27:33;7.60;;;4.87;;
46363;SDS011;32071;49.036;9.344;2024-02-04T11:29:59;1.90;;;1.80;;
46363;SDS011;32071;49.036;9.344;2024-02-04T11:32:25;0.60;;;0.60;;
46363;SDS011;32071;49.036;9.344;2024-02-04T11:34:50;3.27;;;2.00;;
46363;SDS011;32071;49.036;9.344;2024-02-04T11:37:19;1.13;;;0.83;;
46363;SDS011;32071;49.036;9.344;2024-02-04T11:39:49;0.50;;;0.47;;
46363;SDS011;32071;49.036;9.344;2024-02-04T11:42:16;6.73;;;4.37;;
46363;SDS011;32071;49.036;9.344;2024-02-04T11:44:43;6.63;;;2.50;;
46363;SDS011;32071;49.036;9.344;2024-02-04T11:47:10;3.07;;;2.27;;
46363;SDS011;32071;49.036;9.344;2024-02-04T11:49:36;8.13;;;5.23;;
46363;SDS011;32071;49.036;9.344;2024-02-04T11:52:02;20.87;;;11.77;;
46363;SDS011;32071;49.036;9.344;2024-02-04T11:54:27;11.17;;;7.50;;
46363;SDS011;32071;49.036;9.344;2024-02-04T11:56:54;2.67;;;2.20;;
46363;SDS011;32071;49.036;9.344;2024-02-04T11:59:22;0.50;;;0.50;;
46363;SDS011;32071;49.036;9.344;2024-02-04T12:01:49;0.80;;;0.70;;
46363;SDS011;32071;49.036;9.344;2024-02-04T12:04:22;1.10;;;1.00;;
46363;SDS011;32071;49.036;9.344;2024-02-04T12:06:50;1.73;;;1.63;;
46363;SDS011;32071;49.036;9.344;2024-02-04T12:09:17;2.60;;;2.40;;
46363;SDS011;32071;49.036;9.344;2024-02-04T12:11:47;3.63;;;2.60;;
46363;SDS011;32071;49.036;9.344;2024-02-04T12:14:13;2.60;;;2.27;;
46363;SDS011;32071;49.036;9.344;2024-02-04T12:16:40;1.50;;;1.30;;
46363;SDS011;32071;49.036;9.344;2024-02-04T12:19:06;2.40;;;1.77;;
46363;SDS011;32071;49.036;9.344;2024-02-04T12:21:32;0.67;;;0.60;;
46363;SDS011;32071;49.036;9.344;2024-02-04T12:23:58;0.80;;;0.80;;
46363;SDS011;32071;49.036;9.344;2024-02-04T12:26:24;2.50;;;2.30;;
46363;SDS011;32071;49.036;9.344;2024-02-04T12:28:51;3.13;;;0.90;;
46363;SDS011;32071;49.036;9.344;2024-02-04T12:31:18;1.03;;;0.80;;
46363;SDS011;32071;49.036;9.344;2024-02-04T12:33:54;0.77;;;0.60;;
46363;SDS011;32071;49.036;9.344;2024-02-04T12:36:23;1.33;;;1.23;;
46363;SDS011;32071;49.036;9.344;2024-02-04T12:38:53;0.67;;;0.67;;
46363;SDS011;32071;49.036;9.344;2024-02-04T12:41:20;0.50;;;0.40;;
46363;SDS011;32071;49.036;9.344;2024-02-04T12:43:50;0.80;;;0.80;;
46363;SDS011;32071;49.036;9.344;2024-02-04T12:46:19;1.00;;;0.87;;
46363;SDS011;32071;49.036;9.344;2024-02-04T12:48:53;0.80;;;0.80;;
46363;SDS011;32071;49.036;9.344;2024-02-04T12:51:24;1.40;;;1.20;;
46363;SDS011;32071;49.036;9.344;2024-02-04T12:57:06;1.00;;;0.90;;
46363;SDS011;32071;49.036;9.344;2024-02-04T12:59:28;4.10;;;3.77;;
46363;SDS011;32071;49.036;9.344;2024-02-04T13:02:01;2.00;;;1.87;;
46363;SDS011;32071;49.036;9.344;2024-02-04T13:04:34;3.23;;;2.97;;
46363;SDS011;32071;49.036;9.344;2024-02-04T13:07:00;0.90;;;0.90;;
46363;SDS011;32071;49.036;9.344;2024-02-04T13:09:26;1.47;;;0.73;;
46363;SDS011;32071;49.036;9.344;2024-02-04T13:12:01;0.53;;;0.50;;
46363;SDS011;32071;49.036;9.344;2024-02-04T13:14:31;1.77;;;0.87;;
46363;SDS011;32071;49.036;9.344;2024-02-04T13:16:57;1.10;;;0.97;;
46363;SDS011;32071;49.036;9.344;2024-02-04T13:19:23;1.10;;;1.00;;
46363;SDS011;32071;49.036;9.344;2024-02-04T13:21:48;1.07;;;0.97;;
46363;SDS011;32071;49.036;9.344;2024-02-04T13:24:14;3.00;;;2.70;;
46363;SDS011;32071;49.036;9.344;2024-02-04T13:26:39;5.20;;;3.73;;
46363;SDS011;32071;49.036;9.344;2024-02-04T13:29:05;3.17;;;2.70;;
46363;SDS011;32071;49.036;9.344;2024-02-04T13:31:30;1.83;;;1.73;;
46363;SDS011;32071;49.036;9.344;2024-02-04T13:33:56;2.33;;;1.90;;
46363;SDS011;32071;49.036;9.344;2024-02-04T13:36:22;2.40;;;2.20;;
46363;SDS011;32071;49.036;9.344;2024-02-04T13:38:48;2.73;;;2.53;;
46363;SDS011;32071;49.036;9.344;2024-02-04T13:41:15;7.63;;;6.90;;
46363;SDS011;32071;49.036;9.344;2024-02-04T13:43:41;6.23;;;5.63;;
46363;SDS011;32071;49.036;9.344;2024-02-04T13:46:08;8.50;;;7.70;;
46363;SDS011;32071;49.036;9.344;2024-02-04T13:48:34;1.90;;;1.80;;
46363;SDS011;32071;49.036;9.344;2024-02-04T13:51:01;2.10;;;2.00;;
46363;SDS011;32071;49.036;9.344;2024-02-04T13:53:27;2.60;;;2.40;;
46363;SDS011;32071;49.036;9.344;2024-02-04T13:55:52;1.57;;;1.20;;
46363;SDS011;32071;49.036;9.344;2024-02-04T13:58:18;1.67;;;1.50;;
46363;SDS011;32071;49.036;9.344;2024-02-04T14:00:44;4.40;;;2.53;;
46363;SDS011;32071;49.036;9.344;2024-02-04T14:03:09;1.60;;;1.50;;
46363;SDS011;32071;49.036;9.344;2024-02-04T14:05:37;2.27;;;2.00;;
46363;SDS011;32071;49.036;9.344;2024-02-04T14:08:04;1.80;;;1.70;;
46363;SDS011;32071;49.036;9.344;2024-02-04T14:10:31;1.67;;;1.47;;
46363;SDS011;32071;49.036;9.344;2024-02-04T14:12:56;1.30;;;1.20;;
46363;SDS011;32071;49.036;9.344;2024-02-04T14:15:22;1.70;;;1.50;;
46363;SDS011;32071;49.036;9.344;2024-02-04T14:17:47;1.60;;;1.50;;
46363;SDS011;32071;49.036;9.344;2024-02-04T14:20:13;1.40;;;1.30;;
46363;SDS011;32071;49.036;9.344;2024-02-04T14:22:40;1.60;;;1.50;;
46363;SDS011;32071;49.036;9.344;2024-02-04T14:25:06;2.20;;;2.00;;
46363;SDS011;32071;49.036;9.344;2024-02-04T14:27:31;3.83;;;3.53;;
46363;SDS011;32071;49.036;9.344;2024-02-04T14:29:57;1.27;;;1.17;;
46363;SDS011;32071;49.036;9.344;2024-02-04T14:32:24;5.90;;;5.10;;
46363;SDS011;32071;49.036;9.344;2024-02-04T14:34:49;1.63;;;1.53;;
46363;SDS011;32071;49.036;9.344;2024-02-04T14:37:15;1.20;;;1.20;;
46363;SDS011;32071;49.036;9.344;2024-02-04T14:39:41;2.77;;;2.00;;
46363;SDS011;32071;49.036;9.344;2024-02-04T14:42:08;3.07;;;2.70;;
46363;SDS011;32071;49.036;9.344;2024-02-04T14:44:35;3.47;;;3.17;;
46363;SDS011;32071;49.036;9.344;2024-02-04T14:47:01;2.30;;;2.10;;
46363;SDS011;32071;49.036;9.344;2024-02-04T14:49:27;2.80;;;2.33;;
46363;SDS011;32071;49.036;9.344;2024-02-04T14:51:52;2.80;;;1.37;;
46363;SDS011;32071;49.036;9.344;2024-02-04T14:54:18;2.03;;;1.70;;
46363;SDS011;32071;49.036;9.344;2024-02-04T14:56:43;3.40;;;3.10;;
46363;SDS011;32071;49.036;9.344;2024-02-04T14:59:11;2.00;;;1.80;;
46363;SDS011;32071;49.036;9.344;2024-02-04T15:01:37;2.23;;;2.03;;
46363;SDS011;32071;49.036;9.344;2024-02-04T15:04:03;3.07;;;1.57;;